Meteo Giornale » Osservazioni meteo Stati Uniti (USA) » Galveston Scholes Fld
ore: 04:52 - Osservazioni Meteo Galveston Scholes Fld
Lat. 29° 16' N Lon. 94° 51' W Alt. 2 metri s.l.m.
28 °C
Sereno
Temp. 24 Ore
28 °C
33 °C
Nord/NOvest
7.4 Km/h
Dew point 24 °C
Umidità 78 %
Visibilità 10 Km
Il sole sorge alle ore 06:57
Il sole tramonta alle ore 19:41
| Data e Ora | Cielo e Fenomeni | T °C | DP °C | Um. % | Pres. hPa | Vis. km | Vento km/h | |
|---|---|---|---|---|---|---|---|---|
| Oggi h: 04:52 | Sereno | 28 | 24 | 78 | 1014 | 10 | N/NO 7.4 | |
| Oggi h: 03:52 | Sereno | 29 | 24 | 74 | 1014 | 10 | N 0 | |
| Oggi h: 02:52 | Nuvoloso | 28 | 24 | 78 | 1014 | 10 | N 0 | |
| Oggi h: 01:52 | Poco Nuvoloso | 29 | 25 | 79 | 1015 | 10 | E 11.1 | |
| Oggi h: 00:52 | Sereno | 29 | 24 | 74 | 1015 | 10 | E 7.4 | |
| Ieri h: 23:52 | Poco Nuvoloso | 29 | 24 | 74 | 1015 | 10 | E/NE 11.1 | |
| Ieri h: 22:52 | Nuvoloso | 29 | 24 | 74 | 1015 | 10 | E 7.4 | |
| Ieri h: 21:52 | Sereno | 29 | 24 | 74 | 1014 | 10 | N 5.5 | |
| Ieri h: 20:52 | Sereno | 29 | 23 | 70 | 1014 | 10 | N 5.5 | |
| Ieri h: 19:52 | Sereno | 30 | 24 | 70 | 1014 | 10 | S 11.1 | |
| Ieri h: 18:52 | Sereno | 31 | 24 | 66 | 1014 | 10 | S/SE 11.1 | |
| Ieri h: 17:52 | Sereno | 31 | 24 | 66 | 1014 | 10 | SE 13 | |
| Ieri h: 16:52 | Sereno | 32 | 25 | 66 | 1014 | 10 | E/SE 14.8 | |
| Ieri h: 15:52 | Sereno | 31 | 24 | 66 | 1015 | 10 | N 5.5 | |
| Ieri h: 15:06 | Molto Nuvoloso | 30 | 24 | 70 | 1016 | 10 | N 11.1 | |
| Ieri h: 14:52 | Coperto | 30 | 24 | 70 | 1016 | 10 | N 18.5 | |
| Ieri h: 14:34 | Temporale nelle vicinanze | 32 | 23 | 59 | 1016 | 10 | N 13 | |
| Ieri h: 13:52 | Coperto | 31 | 23 | 62 | 1016 | 10 | N 16.7 | |
| Ieri h: 12:52 | Molto Nuvoloso | 33 | 24 | 59 | 1017 | 10 | NE 16.7 | |
| Ieri h: 12:23 | Coperto | 31 | 25 | 70 | 1017 | 10 | N 0 | |
| Ieri h: 11:52 | Poco Nuvoloso | 31 | 24 | 66 | 1017 | 10 | N 13 | |
| Ieri h: 10:52 | Coperto | 32 | 24 | 62 | 1017 | 10 | N 20.3 | |
| Ieri h: 09:52 | Sereno | 31 | 25 | 70 | 1017 | 10 | N/NO 13 | |
| Ieri h: 08:52 | Sereno | 28 | 25 | 83 | 1016 | 10 | N/NO 7.4 | |
| Ieri h: 07:52 | Sereno | 28 | 24 | 78 | 1016 | 10 | N/NO 11.1 | |
| Ieri h: 06:52 | Sereno | 28 | 25 | 83 | 1015 | 10 | NO 9.3 | |
| Ieri h: 05:52 | Sereno | 28 | 24 | 78 | 1015 | 10 | N 5.5 | |



